Time;durP1;ratioP1;P1;durP2;ratioP2;P2;SDS_P1;SDS_P2;PMS_P1;PMS_P2;Temp;Humidity;BMP_temperature;BMP_pressure;BME280_temperature;BME280_humidity;BME280_pressure;Samples;Min_cycle;Max_cycle;Signal;HPM_P1;HPM_P2
2022/09/23 00:00:22;;;;;;;;;;;;;;;;;;6209013;23;19922;-73
2022/09/23 00:02:48;;;;;;;;;;;;;;;;;;6209164;23;19911;-72
2022/09/23 00:05:14;;;;;;;;;;;;;;;;;;6207444;23;19919;-72
2022/09/23 00:07:40;;;;;;;;;;;;;;;;;;6209222;23;19920;-73
2022/09/23 00:10:05;;;;;;;;;;;;;;;;;;6209401;23;19923;-73
2022/09/23 00:12:31;;;;;;;;;;;;;;;;;;6208528;23;19911;-72
2022/09/23 00:14:56;;;;;;;;;;;;;;;;;;6209472;23;19912;-72
2022/09/23 00:17:22;;;;;;;;;;;;;;;;;;6208897;23;20348;-72
2022/09/23 00:19:48;;;;;;;;;;;;;;;;;;6210373;23;19912;-73
2022/09/23 00:22:13;;;;;;;;;;;;;;;;;;6184022;23;20333;-73
2022/09/23 00:24:39;;;;;;;;;;;;;;;;;;6211126;23;19916;-73
2022/09/23 00:27:04;;;;;;;;;;;;;;;;;;6210893;23;20339;-71
2022/09/23 00:29:30;;;;;;;;;;;;;;;;;;6210324;23;19922;-71
2022/09/23 00:31:56;;;;;;;;;;;;;;;;;;6210801;23;19923;-75
2022/09/23 00:34:22;;;;;;;;;;;;;;;;;;6210413;23;20222;-72
2022/09/23 00:36:47;;;;;;;;;;;;;;;;;;6210743;23;19912;-72
2022/09/23 00:39:13;;;;;;;;;;;;;;;;;;6210495;23;19911;-73
2022/09/23 00:41:39;;;;;;;;;;;;;;;;;;6210886;23;19912;-73
2022/09/23 00:44:04;;;;;;;;;;;;;;;;;;6184581;23;20235;-71
2022/09/23 00:46:30;;;;;;;;;;;;;;;;;;6210926;23;20671;-74
2022/09/23 00:48:55;;;;;;;;;;;;;;;;;;6210475;23;20356;-73
2022/09/23 00:51:21;;;;;;;;;;;;;;;;;;6210623;23;19951;-72
2022/09/23 00:53:46;;;;;;;;;;;;;;;;;;6210422;23;19912;-72
2022/09/23 00:56:12;;;;;;;;;;;;;;;;;;6210390;23;20249;-73
2022/09/23 00:58:37;;;;;;;;;;;;;;;;;;6210375;23;20019;-72
2022/09/23 01:01:03;;;;;;;;;;;;;;;;;;6210564;23;19920;-73
2022/09/23 01:03:28;;;;;;;;;;;;;;;;;;6210117;23;19918;-73
2022/09/23 01:05:54;;;;;;;;;;;;;;;;;;6210527;23;20249;-72
2022/09/23 01:08:19;;;;;;;;;;;;;;;;;;6210347;23;19931;-73
2022/09/23 01:10:46;;;;;;;;;;;;;;;;;;6210354;23;19943;-73
2022/09/23 01:13:11;;;;;;;;;;;;;;;;;;6210594;23;19919;-74
2022/09/23 01:15:37;;;;;;;;;;;;;;;;;;6208956;23;19912;-74
2022/09/23 01:18:03;;;;;;;;;;;;;;;;;;6210630;23;19981;-72
2022/09/23 01:20:28;;;;;;;;;;;;;;;;;;6211679;23;19919;-72
2022/09/23 01:22:54;;;;;;;;;;;;;;;;;;6211340;23;19916;-73
2022/09/23 01:25:19;;;;;;;;;;;;;;;;;;6208881;23;20259;-72
2022/09/23 01:27:45;;;;;;;;;;;;;;;;;;6210610;23;20370;-72
2022/09/23 01:30:10;;;;;;;;;;;;;;;;;;6208131;23;19915;-73
2022/09/23 01:32:36;;;;;;;;;;;;;;;;;;6183722;23;20356;-73
2022/09/23 01:35:02;;;;;;;;;;;;;;;;;;6210342;23;19960;-72
2022/09/23 01:37:29;;;;;;;;;;;;;;;;;;6210346;23;19912;-72
2022/09/23 01:39:55;;;;;;;;;;;;;;;;;;6210677;23;20046;-71
2022/09/23 01:42:21;;;;;;;;;;;;;;;;;;6210268;23;19943;-74
2022/09/23 01:44:47;;;;;;;;;;;;;;;;;;6210207;23;19919;-73
2022/09/23 01:47:13;;;;;;;;;;;;;;;;;;6210013;23;19919;-72
2022/09/23 01:49:38;;;;;;;;;;;;;;;;;;6210041;23;20345;-73
2022/09/23 01:52:04;;;;;;;;;;;;;;;;;;6210952;23;19965;-73
2022/09/23 01:54:30;;;;;;;;;;;;;;;;;;6209848;23;20260;-73
2022/09/23 01:56:56;;;;;;;;;;;;;;;;;;6210831;23;19998;-73
2022/09/23 01:59:22;;;;;;;;;;;;;;;;;;6212895;23;19919;-73
2022/09/23 02:01:49;;;;;;;;;;;;;;;;;;6215269;23;19912;-73
2022/09/23 02:04:16;;;;;;;;;;;;;;;;;;6213330;23;19957;-73
2022/09/23 02:06:42;;;;;;;;;;;;;;;;;;6210992;23;19919;-72
2022/09/23 02:09:07;;;;;;;;;;;;;;;;;;6210399;23;20006;-72
2022/09/23 02:11:35;;;;;;;;;;;;;;;;;;6210569;23;20226;-72
2022/09/23 02:14:00;;;;;;;;;;;;;;;;;;6208287;23;19938;-72
2022/09/23 02:16:26;;;;;;;;;;;;;;;;;;6210306;23;19912;-72
2022/09/23 02:18:52;;;;;;;;;;;;;;;;;;6208246;23;20245;-73
2022/09/23 02:21:17;;;;;;;;;;;;;;;;;;6209683;23;19912;-73
2022/09/23 02:23:43;;;;;;;;;;;;;;;;;;6209881;23;19940;-71
2022/09/23 02:26:08;;;;;;;;;;;;;;;;;;6209613;23;19965;-72
2022/09/23 02:28:34;;;;;;;;;;;;;;;;;;6210109;23;19966;-73
2022/09/23 02:30:59;;;;;;;;;;;;;;;;;;6210435;23;19918;-75
2022/09/23 02:33:25;;;;;;;;;;;;;;;;;;6210175;23;19920;-73
2022/09/23 02:35:51;;;;;;;;;;;;;;;;;;6210136;23;19912;-74
2022/09/23 02:38:16;;;;;;;;;;;;;;;;;;6210010;23;20337;-73
2022/09/23 02:40:42;;;;;;;;;;;;;;;;;;6183490;23;19943;-72
2022/09/23 02:43:08;;;;;;;;;;;;;;;;;;6209762;23;20004;-73
2022/09/23 02:45:34;;;;;;;;;;;;;;;;;;6209434;23;19974;-72
2022/09/23 02:47:59;;;;;;;;;;;;;;;;;;6209297;23;20364;-71
2022/09/23 02:50:25;;;;;;;;;;;;;;;;;;6209207;23;20303;-73
2022/09/23 02:52:50;;;;;;;;;;;;;;;;;;6209784;23;19912;-72
2022/09/23 02:55:16;;;;;;;;;;;;;;;;;;6209220;23;19935;-73
2022/09/23 02:57:42;;;;;;;;;;;;;;;;;;6209532;23;20367;-72
2022/09/23 03:00:07;;;;;;;;;;;;;;;;;;6209191;23;19943;-72
2022/09/23 03:02:33;;;;;;;;;;;;;;;;;;6209537;23;20398;-72
2022/09/23 03:04:58;;;;;;;;;;;;;;;;;;6209703;23;19915;-73
2022/09/23 03:07:24;;;;;;;;;;;;;;;;;;6208837;23;19912;-73
2022/09/23 03:09:49;;;;;;;;;;;;;;;;;;6209438;23;19922;-73
2022/09/23 03:12:15;;;;;;;;;;;;;;;;;;6210370;23;20261;-69
2022/09/23 03:14:41;;;;;;;;;;;;;;;;;;6211368;23;19950;-72
2022/09/23 03:17:08;;;;;;;;;;;;;;;;;;6183041;23;19912;-73
2022/09/23 03:19:33;;;;;;;;;;;;;;;;;;6209326;23;20379;-73
2022/09/23 03:22:02;;;;;;;;;;;;;;;;;;6209430;23;19989;-72
2022/09/23 03:24:30;;;;;;;;;;;;;;;;;;6209204;23;19912;-74
2022/09/23 03:26:59;;;;;;;;;;;;;;;;;;6182857;23;20299;-73
2022/09/23 03:29:24;;;;;;;;;;;;;;;;;;6208899;23;19920;-72
2022/09/23 03:31:51;;;;;;;;;;;;;;;;;;6209119;23;19920;-73
2022/09/23 03:34:16;;;;;;;;;;;;;;;;;;6209074;23;19920;-72
2022/09/23 03:36:51;;;;;;;;;;;;;;;;;;6209354;23;20009;-73
2022/09/23 03:39:17;;;;;;;;;;;;;;;;;;6209706;23;19912;-74
2022/09/23 03:41:42;;;;;;;;;;;;;;;;;;6209471;23;20367;-72
2022/09/23 03:44:08;;;;;;;;;;;;;;;;;;6209575;23;19908;-72
2022/09/23 03:46:34;;;;;;;;;;;;;;;;;;6207135;23;20391;-74
2022/09/23 03:48:59;;;;;;;;;;;;;;;;;;6209269;23;19923;-73
2022/09/23 03:51:25;;;;;;;;;;;;;;;;;;6207476;23;20014;-72
2022/09/23 03:53:50;;;;;;;;;;;;;;;;;;6209803;23;19994;-73
2022/09/23 03:56:16;;;;;;;;;;;;;;;;;;6210917;23;20018;-71
2022/09/23 03:58:44;;;;;;;;;;;;;;;;;;6211078;23;19919;-73
2022/09/23 04:01:09;;;;;;;;;;;;;;;;;;6209533;23;19912;-73
2022/09/23 04:03:35;;;;;;;;;;;;;;;;;;6184724;23;19927;-71
2022/09/23 04:06:00;;;;;;;;;;;;;;;;;;6211822;23;19974;-71
2022/09/23 04:08:26;;;;;;;;;;;;;;;;;;6211547;23;19924;-73
2022/09/23 04:10:52;;;;;;;;;;;;;;;;;;6212299;23;19912;-72
2022/09/23 04:13:17;;;;;;;;;;;;;;;;;;6211901;23;19919;-73
2022/09/23 04:15:43;;;;;;;;;;;;;;;;;;6212195;23;19954;-73
2022/09/23 04:18:08;;;;;;;;;;;;;;;;;;6212293;23;19919;-73
2022/09/23 04:20:34;;;;;;;;;;;;;;;;;;6210484;23;19961;-74
2022/09/23 04:22:59;;;;;;;;;;;;;;;;;;6211946;23;20348;-73
2022/09/23 04:25:25;;;;;;;;;;;;;;;;;;6211858;23;19918;-72
2022/09/23 04:27:50;;;;;;;;;;;;;;;;;;6210293;23;19951;-72
2022/09/23 04:30:17;;;;;;;;;;;;;;;;;;6210854;23;20456;-73
2022/09/23 04:32:43;;;;;;;;;;;;;;;;;;6210467;23;20356;-73
2022/09/23 04:35:08;;;;;;;;;;;;;;;;;;6210452;23;19919;-74
2022/09/23 04:37:34;;;;;;;;;;;;;;;;;;6210177;23;20685;-72
2022/09/23 04:39:59;;;;;;;;;;;;;;;;;;6210136;23;20002;-72
2022/09/23 04:42:25;;;;;;;;;;;;;;;;;;6208933;23;19922;-72
2022/09/23 04:44:51;;;;;;;;;;;;;;;;;;6211222;23;19912;-73
2022/09/23 04:47:18;;;;;;;;;;;;;;;;;;6211176;23;19939;-73
2022/09/23 04:49:43;;;;;;;;;;;;;;;;;;6209473;23;19942;-73
2022/09/23 04:52:09;;;;;;;;;;;;;;;;;;6211464;23;19916;-72
2022/09/23 04:54:35;;;;;;;;;;;;;;;;;;6184937;23;20380;-73
2022/09/23 04:57:01;;;;;;;;;;;;;;;;;;6185923;23;19912;-71
2022/09/23 04:59:26;;;;;;;;;;;;;;;;;;6211449;23;20403;-72
2022/09/23 05:01:53;;;;;;;;;;;;;;;;;;6185141;23;20318;-72
2022/09/23 05:04:19;;;;;;;;;;;;;;;;;;6211261;23;19911;-72
2022/09/23 05:06:44;;;;;;;;;;;;;;;;;;6184369;23;19911;-73
2022/09/23 05:09:10;;;;;;;;;;;;;;;;;;6210186;23;19927;-72
2022/09/23 05:11:35;;;;;;;;;;;;;;;;;;6207732;23;19915;-72
2022/09/23 05:14:01;;;;;;;;;;;;;;;;;;6208943;23;20351;-73
2022/09/23 05:16:27;;;;;;;;;;;;;;;;;;6209229;23;20268;-72
2022/09/23 05:18:52;;;;;;;;;;;;;;;;;;6209212;23;19998;-72
2022/09/23 05:21:18;;;;;;;;;;;;;;;;;;6209143;23;19958;-73
2022/09/23 05:23:44;;;;;;;;;;;;;;;;;;6211642;23;19919;-73
2022/09/23 05:26:09;;;;;;;;;;;;;;;;;;6211429;23;19934;-73
2022/09/23 05:28:36;;;;;;;;;;;;;;;;;;6211298;23;20411;-73
2022/09/23 05:31:02;;;;;;;;;;;;;;;;;;6211227;23;19947;-72
2022/09/23 05:33:28;;;;;;;;;;;;;;;;;;6211423;23;19919;-74
2022/09/23 05:35:54;;;;;;;;;;;;;;;;;;6211686;23;19916;-72
2022/09/23 05:38:20;;;;;;;;;;;;;;;;;;6211544;23;19923;-73
2022/09/23 05:40:45;;;;;;;;;;;;;;;;;;6211714;23;20356;-73
2022/09/23 05:43:11;;;;;;;;;;;;;;;;;;6214300;23;19973;-73
2022/09/23 05:45:37;;;;;;;;;;;;;;;;;;6213753;23;19935;-73
2022/09/23 05:48:02;;;;;;;;;;;;;;;;;;6213412;23;19928;-72
2022/09/23 05:50:28;;;;;;;;;;;;;;;;;;6211097;23;19918;-71
2022/09/23 05:52:54;;;;;;;;;;;;;;;;;;6210368;23;19915;-72
2022/09/23 05:55:19;;;;;;;;;;;;;;;;;;6210843;23;19915;-72
2022/09/23 05:57:45;;;;;;;;;;;;;;;;;;6211650;23;19940;-73
2022/09/23 06:00:10;;;;;;;;;;;;;;;;;;6211396;23;20233;-74
2022/09/23 06:02:39;;;;;;;;;;;;;;;;;;6185634;23;19912;-73
2022/09/23 06:05:05;;;;;;;;;;;;;;;;;;6211146;23;19919;-74
2022/09/23 06:07:31;;;;;;;;;;;;;;;;;;6204527;23;20357;-72
2022/09/23 06:09:56;;;;;;;;;;;;;;;;;;6209428;23;20009;-73
2022/09/23 06:12:23;;;;;;;;;;;;;;;;;;6209462;23;20248;-73
2022/09/23 06:14:49;;;;;;;;;;;;;;;;;;6209540;23;19912;-74
2022/09/23 06:17:15;;;;;;;;;;;;;;;;;;6209051;23;19934;-72
2022/09/23 06:19:41;;;;;;;;;;;;;;;;;;6208623;23;19919;-73
2022/09/23 06:22:07;;;;;;;;;;;;;;;;;;6210162;23;19911;-73
2022/09/23 06:24:32;;;;;;;;;;;;;;;;;;6180907;23;20003;-73
2022/09/23 06:26:58;;;;;;;;;;;;;;;;;;6209490;23;19912;-73
2022/09/23 06:29:23;;;;;;;;;;;;;;;;;;6208456;23;19923;-73
2022/09/23 06:31:49;;;;;;;;;;;;;;;;;;6209138;23;20257;-73
2022/09/23 06:34:15;;;;;;;;;;;;;;;;;;6209037;23;19991;-73
2022/09/23 06:36:40;;;;;;;;;;;;;;;;;;6208706;23;19966;-72
2022/09/23 06:39:06;;;;;;;;;;;;;;;;;;6209155;23;19920;-72
2022/09/23 06:41:31;;;;;;;;;;;;;;;;;;6208328;23;19946;-74
2022/09/23 06:43:57;;;;;;;;;;;;;;;;;;6207100;23;20268;-73
2022/09/23 06:46:23;;;;;;;;;;;;;;;;;;6208994;23;19918;-72
2022/09/23 06:48:49;;;;;;;;;;;;;;;;;;6209127;23;20410;-73
2022/09/23 06:51:18;;;;;;;;;;;;;;;;;;6209303;23;19911;-73
2022/09/23 06:53:43;;;;;;;;;;;;;;;;;;6211261;23;19911;-72
2022/09/23 06:56:10;;;;;;;;;;;;;;;;;;6210331;23;19912;-73
2022/09/23 06:58:36;;;;;;;;;;;;;;;;;;6210551;23;20130;-71
2022/09/23 07:01:02;;;;;;;;;;;;;;;;;;6209919;23;20260;-73
2022/09/23 07:03:27;;;;;;;;;;;;;;;;;;6209909;23;19957;-73
2022/09/23 07:05:53;;;;;;;;;;;;;;;;;;6209748;23;19912;-73
2022/09/23 07:08:18;;;;;;;;;;;;;;;;;;6207626;23;20275;-72
2022/09/23 07:10:44;;;;;;;;;;;;;;;;;;6209244;23;19911;-72
2022/09/23 07:13:09;;;;;;;;;;;;;;;;;;6207926;23;19923;-72
2022/09/23 07:15:35;;;;;;;;;;;;;;;;;;6208855;23;19918;-72
2022/09/23 07:18:01;;;;;;;;;;;;;;;;;;6209345;23;19912;-73
2022/09/23 07:20:26;;;;;;;;;;;;;;;;;;6208845;23;20180;-72
2022/09/23 07:22:52;;;;;;;;;;;;;;;;;;6182642;23;19987;-73
2022/09/23 07:25:17;;;;;;;;;;;;;;;;;;6208662;23;20299;-73
2022/09/23 07:27:46;;;;;;;;;;;;;;;;;;6208886;23;19955;-72
2022/09/23 07:30:11;;;;;;;;;;;;;;;;;;6208973;23;19994;-74
2022/09/23 07:32:37;;;;;;;;;;;;;;;;;;6208758;23;19948;-73
2022/09/23 07:35:03;;;;;;;;;;;;;;;;;;6209131;23;19912;-72
2022/09/23 07:37:29;;;;;;;;;;;;;;;;;;6207472;23;19919;-72
2022/09/23 07:39:55;;;;;;;;;;;;;;;;;;6208749;23;20345;-74
2022/09/23 07:42:20;;;;;;;;;;;;;;;;;;6208456;23;20053;-73
2022/09/23 07:44:46;;;;;;;;;;;;;;;;;;6208512;23;20356;-73
2022/09/23 07:47:12;;;;;;;;;;;;;;;;;;6208518;23;20296;-73
2022/09/23 07:49:38;;;;;;;;;;;;;;;;;;6208708;23;20330;-73
2022/09/23 07:52:03;;;;;;;;;;;;;;;;;;6209049;23;20215;-72
2022/09/23 07:54:29;;;;;;;;;;;;;;;;;;6208557;23;19918;-72
2022/09/23 07:56:55;;;;;;;;;;;;;;;;;;6207805;23;19916;-73
2022/09/23 07:59:21;;;;;;;;;;;;;;;;;;6208736;23;19912;-72
2022/09/23 08:01:47;;;;;;;;;;;;;;;;;;6208702;23;19919;-72
2022/09/23 08:04:12;;;;;;;;;;;;;;;;;;6209227;23;20010;-73
2022/09/23 08:06:38;;;;;;;;;;;;;;;;;;6208693;23;19916;-73
2022/09/23 08:09:03;;;;;;;;;;;;;;;;;;6209128;23;19927;-73
2022/09/23 08:11:30;;;;;;;;;;;;;;;;;;6209209;23;20312;-73
2022/09/23 08:13:55;;;;;;;;;;;;;;;;;;6208854;23;19911;-72
2022/09/23 08:16:21;;;;;;;;;;;;;;;;;;6207013;23;19935;-73
2022/09/23 08:18:46;;;;;;;;;;;;;;;;;;6208899;23;20418;-73
2022/09/23 08:21:12;;;;;;;;;;;;;;;;;;6208701;23;19912;-71
2022/09/23 08:23:37;;;;;;;;;;;;;;;;;;6209215;23;20348;-73
2022/09/23 08:26:03;;;;;;;;;;;;;;;;;;6208722;23;19991;-74
2022/09/23 08:28:29;;;;;;;;;;;;;;;;;;6208574;23;19974;-73
2022/09/23 08:30:54;;;;;;;;;;;;;;;;;;6208419;23;20345;-73
2022/09/23 08:33:20;;;;;;;;;;;;;;;;;;6208392;23;20011;-73
2022/09/23 08:35:46;;;;;;;;;;;;;;;;;;6208656;23;19975;-73
2022/09/23 08:38:11;;;;;;;;;;;;;;;;;;6209279;23;19923;-73
2022/09/23 08:40:37;;;;;;;;;;;;;;;;;;6209862;23;20333;-72
2022/09/23 08:43:05;;;;;;;;;;;;;;;;;;6210778;23;20046;-74
2022/09/23 08:45:31;;;;;;;;;;;;;;;;;;6210389;23;20035;-72
2022/09/23 08:47:57;;;;;;;;;;;;;;;;;;6183361;23;19978;-72
2022/09/23 08:50:23;;;;;;;;;;;;;;;;;;6210175;23;19912;-72
2022/09/23 08:52:49;;;;;;;;;;;;;;;;;;6208967;23;19912;-72
2022/09/23 08:55:14;;;;;;;;;;;;;;;;;;6210457;23;20344;-72
2022/09/23 08:57:40;;;;;;;;;;;;;;;;;;6211681;23;19908;-71
2022/09/23 09:00:06;;;;;;;;;;;;;;;;;;6209119;23;19992;-72
2022/09/23 09:02:31;;;;;;;;;;;;;;;;;;6210431;23;19935;-71
2022/09/23 09:04:57;;;;;;;;;;;;;;;;;;6209983;23;19946;-73
2022/09/23 09:07:23;;;;;;;;;;;;;;;;;;6209404;23;19911;-72
2022/09/23 09:09:49;;;;;;;;;;;;;;;;;;6210267;23;19923;-72
2022/09/23 09:12:14;;;;;;;;;;;;;;;;;;6210438;23;19994;-72
2022/09/23 09:14:41;;;;;;;;;;;;;;;;;;6209932;23;19911;-72
2022/09/23 09:17:09;;;;;;;;;;;;;;;;;;6210782;23;19916;-72
2022/09/23 09:19:35;;;;;;;;;;;;;;;;;;6211195;23;19968;-72
2022/09/23 09:22:00;;;;;;;;;;;;;;;;;;6211344;23;20064;-72
2022/09/23 09:24:26;;;;;;;;;;;;;;;;;;6210874;23;20003;-71
2022/09/23 09:26:51;;;;;;;;;;;;;;;;;;6210025;23;19951;-73
2022/09/23 09:29:17;;;;;;;;;;;;;;;;;;6209905;23;20074;-72
2022/09/23 09:31:42;;;;;;;;;;;;;;;;;;6206794;23;19923;-72
2022/09/23 09:34:08;;;;;;;;;;;;;;;;;;6182058;23;19943;-72
2022/09/23 09:36:34;;;;;;;;;;;;;;;;;;6182599;23;19935;-71
2022/09/23 09:39:00;;;;;;;;;;;;;;;;;;6183441;23;20307;-72
2022/09/23 09:41:26;;;;;;;;;;;;;;;;;;6209497;23;19944;-71
2022/09/23 09:43:55;;;;;;;;;;;;;;;;;;6210339;23;20367;-71
2022/09/23 09:46:21;;;;;;;;;;;;;;;;;;6209740;23;20303;-72
2022/09/23 09:48:49;;;;;;;;;;;;;;;;;;6210028;23;20008;-73
2022/09/23 09:51:17;;;;;;;;;;;;;;;;;;6209413;23;20068;-73
2022/09/23 09:53:43;;;;;;;;;;;;;;;;;;6183199;23;20042;-73
2022/09/23 09:56:08;;;;;;;;;;;;;;;;;;6209904;23;19919;-73
2022/09/23 09:58:41;;;;;;;;;;;;;;;;;;6209956;23;19912;-73
2022/09/23 10:01:07;;;;;;;;;;;;;;;;;;6209909;23;19947;-73
2022/09/23 10:03:32;;;;;;;;;;;;;;;;;;6183364;23;19908;-73
2022/09/23 10:05:59;;;;;;;;;;;;;;;;;;6209530;23;19912;-73
2022/09/23 10:08:25;;;;;;;;;;;;;;;;;;6209818;23;19927;-73
2022/09/23 10:10:54;;;;;;;;;;;;;;;;;;6208364;23;19911;-73
2022/09/23 10:13:19;;;;;;;;;;;;;;;;;;6209562;23;19915;-73
2022/09/23 10:15:45;;;;;;;;;;;;;;;;;;6209634;23;20027;-73
2022/09/23 10:18:11;;;;;;;;;;;;;;;;;;6183211;23;19919;-73
2022/09/23 10:20:37;;;;;;;;;;;;;;;;;;6209449;23;20330;-73
2022/09/23 10:23:03;;;;;;;;;;;;;;;;;;6210354;23;20230;-73
2022/09/23 10:25:29;;;;;;;;;;;;;;;;;;6209176;23;19966;-73
2022/09/23 10:27:54;;;;;;;;;;;;;;;;;;6208211;23;20393;-73
2022/09/23 10:30:20;;;;;;;;;;;;;;;;;;6209114;23;19916;-74
2022/09/23 10:32:46;;;;;;;;;;;;;;;;;;6212107;23;19924;-82
2022/09/23 10:35:14;;;;;;;;;;;;;;;;;;6218682;23;19912;-84
2022/09/23 10:37:40;;;;;;;;;;;;;;;;;;6210827;23;19966;-81
2022/09/23 10:51:08;;;;;;;;;;;;;;;;;;6214696;22;19912;-88
2022/09/23 10:53:34;;;;;;;;;;;;;;;;;;6216170;23;19900;-88
2022/09/23 10:56:00;;;;;;;;;;;;;;;;;;6193177;23;19950;-83
2022/09/23 10:58:25;;;;;;;;;;;;;;;;;;6193403;23;19927;-83
2022/09/23 11:00:51;;;;;;;;;;;;;;;;;;6217187;23;19915;-83
2022/09/23 11:03:17;;;;;;;;;;;;;;;;;;6247118;23;19954;-83
2022/09/23 11:05:43;;;;;;;;;;;;;;;;;;6173664;23;19915;-86
2022/09/23 11:08:17;;;;;;;;;;;;;;;;;;6201899;23;19950;-81
2022/09/23 11:10:43;;;;;;;;;;;;;;;;;;6213241;23;19965;-81
2022/09/23 11:13:08;;;;;;;;;;;;;;;;;;6188089;23;19915;-81
2022/09/23 11:15:34;;;;;;;;;;;;;;;;;;6216405;23;20322;-81
2022/09/23 11:18:01;;;;;;;;;;;;;;;;;;6191886;23;19912;-81
2022/09/23 11:20:27;;;;;;;;;;;;;;;;;;6220424;23;20059;-83
2022/09/23 11:22:53;;;;;;;;;;;;;;;;;;6225803;23;19919;-87
2022/09/23 11:25:20;;;;;;;;;;;;;;;;;;6226869;23;20310;-81
2022/09/23 11:27:45;;;;;;;;;;;;;;;;;;6240154;23;19915;-81
2022/09/23 11:30:11;;;;;;;;;;;;;;;;;;6239736;22;19950;-81
2022/09/23 11:32:38;;;;;;;;;;;;;;;;;;6193978;23;19915;-83
2022/09/23 11:35:05;;;;;;;;;;;;;;;;;;6209449;22;19910;-87
2022/09/23 11:37:30;;;;;;;;;;;;;;;;;;6218837;22;19948;-82
2022/09/23 11:39:56;;;;;;;;;;;;;;;;;;6211300;23;19912;-83
2022/09/23 11:42:22;;;;;;;;;;;;;;;;;;6185340;23;19990;-83
2022/09/23 11:44:48;;;;;;;;;;;;;;;;;;6188032;23;19912;-83
2022/09/23 11:47:14;;;;;;;;;;;;;;;;;;6212981;23;19919;-83
2022/09/23 11:49:40;;;;;;;;;;;;;;;;;;6188023;23;19920;-82
2022/09/23 11:52:06;;;;;;;;;;;;;;;;;;6213043;23;20313;-83
2022/09/23 11:54:31;;;;;;;;;;;;;;;;;;6213760;23;19916;-83
2022/09/23 11:56:58;;;;;;;;;;;;;;;;;;6162653;23;20468;-85
2022/09/23 11:59:24;;;;;;;;;;;;;;;;;;6186861;23;19961;-84
2022/09/23 12:01:52;;;;;;;;;;;;;;;;;;6188198;23;19916;-83
2022/09/23 12:04:18;;;;;;;;;;;;;;;;;;6163963;23;19926;-82
2022/09/23 12:06:44;;;;;;;;;;;;;;;;;;6188163;23;19946;-83
2022/09/23 12:09:11;;;;;;;;;;;;;;;;;;6187808;23;19920;-83
2022/09/23 12:11:36;;;;;;;;;;;;;;;;;;6162959;23;19998;-83
2022/09/23 12:14:02;;;;;;;;;;;;;;;;;;6187487;23;20342;-83
2022/09/23 12:16:28;;;;;;;;;;;;;;;;;;6216156;23;19912;-83
2022/09/23 12:18:54;;;;;;;;;;;;;;;;;;6190226;23;19912;-83
2022/09/23 12:21:20;;;;;;;;;;;;;;;;;;6164228;23;20205;-84
2022/09/23 12:23:45;;;;;;;;;;;;;;;;;;6189207;23;19912;-83
2022/09/23 12:26:11;;;;;;;;;;;;;;;;;;6216751;23;19923;-83
2022/09/23 12:28:37;;;;;;;;;;;;;;;;;;6215401;23;19920;-84
2022/09/23 12:31:02;;;;;;;;;;;;;;;;;;6183947;23;20154;-83
2022/09/23 12:33:28;;;;;;;;;;;;;;;;;;6159452;23;19912;-83
2022/09/23 12:36:00;;;;;;;;;;;;;;;;;;6154449;23;19921;-84
2022/09/23 12:38:26;;;;;;;;;;;;;;;;;;6117811;23;19945;-83
2022/09/23 12:40:55;;;;;;;;;;;;;;;;;;6106105;23;19913;-84
2022/09/23 12:43:23;;;;;;;;;;;;;;;;;;6184168;23;19939;-84
2022/09/23 12:45:49;;;;;;;;;;;;;;;;;;6186028;23;19990;-83
2022/09/23 12:48:15;;;;;;;;;;;;;;;;;;6205814;23;19948;-83
2022/09/23 12:50:40;;;;;;;;;;;;;;;;;;6192833;23;19912;-82
2022/09/23 12:53:06;;;;;;;;;;;;;;;;;;6162624;23;19912;-82
2022/09/23 12:55:32;;;;;;;;;;;;;;;;;;6183664;23;19912;-82
2022/09/23 12:57:57;;;;;;;;;;;;;;;;;;6185289;23;19920;-82
2022/09/23 13:00:23;;;;;;;;;;;;;;;;;;6183860;23;19919;-81
2022/09/23 13:08:34;;;;;;;;;;;;;;;;;;6195375;23;19920;-82
2022/09/23 13:11:00;;;;;;;;;;;;;;;;;;6188203;23;19919;-82
2022/09/23 13:13:25;;;;;;;;;;;;;;;;;;6186963;23;19916;-82
2022/09/23 13:15:52;;;;;;;;;;;;;;;;;;6161485;23;20353;-81
2022/09/23 13:18:17;;;;;;;;;;;;;;;;;;6186833;23;19919;-82
2022/09/23 13:20:43;;;;;;;;;;;;;;;;;;6186703;23;19912;-83
2022/09/23 13:23:08;;;;;;;;;;;;;;;;;;6187892;23;19912;-82
2022/09/23 13:25:34;;;;;;;;;;;;;;;;;;6165010;23;20003;-83
2022/09/23 13:28:00;;;;;;;;;;;;;;;;;;6187672;23;19916;-83
2022/09/23 13:30:25;;;;;;;;;;;;;;;;;;6186326;23;19913;-82
2022/09/23 13:32:51;;;;;;;;;;;;;;;;;;6188193;23;19916;-82
2022/09/23 13:35:17;;;;;;;;;;;;;;;;;;6162596;23;19927;-82
2022/09/23 13:37:43;;;;;;;;;;;;;;;;;;6161505;23;19935;-83
2022/09/23 13:40:09;;;;;;;;;;;;;;;;;;6188401;23;19919;-82
2022/09/23 13:42:34;;;;;;;;;;;;;;;;;;6187777;23;19912;-82
2022/09/23 13:45:00;;;;;;;;;;;;;;;;;;6187634;23;19939;-84
2022/09/23 13:47:26;;;;;;;;;;;;;;;;;;6188715;23;19991;-83
2022/09/23 13:49:51;;;;;;;;;;;;;;;;;;6189192;23;19927;-83
2022/09/23 13:52:17;;;;;;;;;;;;;;;;;;6187037;23;19919;-83
2022/09/23 13:54:43;;;;;;;;;;;;;;;;;;6188566;23;19964;-82
2022/09/23 13:57:08;;;;;;;;;;;;;;;;;;6161842;23;19974;-83
2022/09/23 13:59:34;;;;;;;;;;;;;;;;;;6162500;23;20389;-82
2022/09/23 14:02:00;;;;;;;;;;;;;;;;;;6188411;23;19912;-82
2022/09/23 14:04:25;;;;;;;;;;;;;;;;;;6190383;23;20353;-83
2022/09/23 14:06:52;;;;;;;;;;;;;;;;;;6188984;23;19962;-83
2022/09/23 14:09:17;;;;;;;;;;;;;;;;;;6188754;23;20010;-83
2022/09/23 14:11:43;;;;;;;;;;;;;;;;;;6161761;23;19912;-84
2022/09/23 14:14:09;;;;;;;;;;;;;;;;;;6139709;23;20238;-84
2022/09/23 14:16:34;;;;;;;;;;;;;;;;;;6189005;23;20089;-83
2022/09/23 14:19:00;;;;;;;;;;;;;;;;;;6190711;23;19908;-82
2022/09/23 14:21:26;;;;;;;;;;;;;;;;;;6189997;23;19995;-82
2022/09/23 14:23:51;;;;;;;;;;;;;;;;;;6185900;23;19960;-82
2022/09/23 14:26:17;;;;;;;;;;;;;;;;;;6183462;23;19913;-81
2022/09/23 14:28:42;;;;;;;;;;;;;;;;;;6163022;23;19920;-82
2022/09/23 14:31:08;;;;;;;;;;;;;;;;;;6151993;23;20348;-82
2022/09/23 14:33:33;;;;;;;;;;;;;;;;;;6183112;23;19967;-82
2022/09/23 14:36:00;;;;;;;;;;;;;;;;;;6160366;23;19932;-82
2022/09/23 14:41:16;;;;;;;;;;;;;;;;;;6165405;23;19971;-81
2022/09/23 14:43:42;;;;;;;;;;;;;;;;;;6195431;23;19917;-82
2022/09/23 14:46:07;;;;;;;;;;;;;;;;;;6177464;23;19938;-82
2022/09/23 14:48:33;;;;;;;;;;;;;;;;;;6170515;23;19967;-82
2022/09/23 14:50:58;;;;;;;;;;;;;;;;;;6183016;23;19916;-81
2022/09/23 14:53:24;;;;;;;;;;;;;;;;;;6164394;23;20430;-83
2022/09/23 14:55:51;;;;;;;;;;;;;;;;;;6187451;23;20248;-83
2022/09/23 14:58:17;;;;;;;;;;;;;;;;;;6178128;23;19912;-83
2022/09/23 15:00:42;;;;;;;;;;;;;;;;;;6178436;23;19923;-83
2022/09/23 15:03:08;;;;;;;;;;;;;;;;;;6187523;23;19936;-83
2022/09/23 15:05:34;;;;;;;;;;;;;;;;;;6164568;23;19918;-83
2022/09/23 15:08:00;;;;;;;;;;;;;;;;;;6187284;23;19916;-83
2022/09/23 15:10:26;;;;;;;;;;;;;;;;;;6171454;23;19919;-83
2022/09/23 15:12:52;;;;;;;;;;;;;;;;;;6179039;23;19913;-83
2022/09/23 15:15:17;;;;;;;;;;;;;;;;;;6185154;23;20057;-83
2022/09/23 15:17:43;;;;;;;;;;;;;;;;;;6185996;23;19912;-83
2022/09/23 15:20:09;;;;;;;;;;;;;;;;;;6187819;23;19912;-83
2022/09/23 15:22:34;;;;;;;;;;;;;;;;;;6187816;23;19912;-83
2022/09/23 15:25:00;;;;;;;;;;;;;;;;;;6139013;23;20221;-82
2022/09/23 15:27:25;;;;;;;;;;;;;;;;;;6190200;23;20422;-84
2022/09/23 15:29:51;;;;;;;;;;;;;;;;;;6165552;23;19925;-84
2022/09/23 15:32:16;;;;;;;;;;;;;;;;;;6191235;23;19923;-83
2022/09/23 15:34:42;;;;;;;;;;;;;;;;;;6190244;23;19959;-83
2022/09/23 15:37:08;;;;;;;;;;;;;;;;;;6155547;23;19944;-83
2022/09/23 15:39:33;;;;;;;;;;;;;;;;;;6106082;23;19913;-83
2022/09/23 15:42:00;;;;;;;;;;;;;;;;;;6153243;23;19913;-83
2022/09/23 15:44:28;;;;;;;;;;;;;;;;;;6139559;23;19921;-82
2022/09/23 15:46:55;;;;;;;;;;;;;;;;;;6143910;23;19913;-82
2022/09/23 15:49:21;;;;;;;;;;;;;;;;;;6151561;23;19948;-82
2022/09/23 15:51:50;;;;;;;;;;;;;;;;;;6131612;23;19940;-81
2022/09/23 15:54:16;;;;;;;;;;;;;;;;;;6154386;23;19912;-81
2022/09/23 15:56:42;;;;;;;;;;;;;;;;;;6137233;23;20007;-82
2022/09/23 15:59:07;;;;;;;;;;;;;;;;;;6146215;23;19935;-82
2022/09/23 16:01:34;;;;;;;;;;;;;;;;;;6154859;23;20333;-82
2022/09/23 16:04:00;;;;;;;;;;;;;;;;;;6155511;23;19916;-81
2022/09/23 16:06:26;;;;;;;;;;;;;;;;;;6154009;23;19952;-81
2022/09/23 16:08:52;;;;;;;;;;;;;;;;;;6153928;23;19924;-82
2022/09/23 16:11:18;;;;;;;;;;;;;;;;;;6152493;23;19913;-83
2022/09/23 16:13:44;;;;;;;;;;;;;;;;;;6154572;23;19919;-83
2022/09/23 16:16:09;;;;;;;;;;;;;;;;;;6145337;23;19944;-83
2022/09/23 16:18:37;;;;;;;;;;;;;;;;;;6139205;23;19913;-83
2022/09/23 16:21:03;;;;;;;;;;;;;;;;;;6153690;23;20352;-82
2022/09/23 16:23:35;;;;;;;;;;;;;;;;;;6132222;23;19913;-83
2022/09/23 16:26:01;;;;;;;;;;;;;;;;;;6155616;23;19919;-82
2022/09/23 16:28:27;;;;;;;;;;;;;;;;;;6128361;23;19924;-82
2022/09/23 16:30:52;;;;;;;;;;;;;;;;;;6152576;23;19968;-82
2022/09/23 16:33:18;;;;;;;;;;;;;;;;;;6128591;23;19912;-82
2022/09/23 16:35:43;;;;;;;;;;;;;;;;;;6165219;23;19920;-82
2022/09/23 16:38:09;;;;;;;;;;;;;;;;;;6153143;23;19923;-82
2022/09/23 16:40:34;;;;;;;;;;;;;;;;;;6189407;23;19908;-82
2022/09/23 16:43:04;;;;;;;;;;;;;;;;;;6164268;23;19958;-82
2022/09/23 16:45:29;;;;;;;;;;;;;;;;;;6158456;23;19943;-83
2022/09/23 16:47:55;;;;;;;;;;;;;;;;;;6184946;23;20233;-82
2022/09/23 16:50:23;;;;;;;;;;;;;;;;;;6165636;23;19991;-82
2022/09/23 16:52:49;;;;;;;;;;;;;;;;;;6197638;23;19923;-82
2022/09/23 16:55:16;;;;;;;;;;;;;;;;;;6174022;23;20038;-82